createdAt,value
2023-08-28T00:02:52.376Z,1.73
2023-08-28T00:06:16.100Z,1.90
2023-08-28T00:09:40.831Z,1.80
2023-08-28T00:13:04.356Z,1.90
2023-08-28T00:16:26.986Z,1.58
2023-08-28T00:19:49.232Z,1.88
2023-08-28T00:23:12.534Z,1.60
2023-08-28T00:26:34.748Z,2.10
2023-08-28T00:29:57.905Z,2.03
2023-08-28T00:33:20.276Z,1.80
2023-08-28T00:36:43.766Z,2.13
2023-08-28T00:40:08.277Z,1.90
2023-08-28T00:43:31.711Z,1.93
2023-08-28T00:46:54.484Z,2.23
2023-08-28T00:50:17.431Z,1.83
2023-08-28T00:53:41.348Z,2.25
2023-08-28T00:57:05.719Z,1.90
2023-08-28T01:00:29.100Z,2.05
2023-08-28T01:03:51.481Z,1.80
2023-08-28T01:07:24.195Z,2.10
2023-08-28T01:10:52.578Z,1.90
2023-08-28T01:14:27.803Z,2.10
2023-08-28T01:18:01.467Z,2.28
2023-08-28T01:21:25.704Z,2.00
2023-08-28T01:24:52.735Z,2.03
2023-08-28T01:28:15.201Z,1.88
2023-08-28T01:31:37.652Z,2.20
2023-08-28T01:35:02.089Z,2.40
2023-08-28T01:38:32.099Z,2.13
2023-08-28T01:41:56.218Z,2.05
2023-08-28T01:45:21.766Z,2.40
2023-08-28T01:48:53.473Z,2.07
2023-08-28T01:52:15.812Z,2.80
2023-08-28T01:55:57.697Z,3.03
2023-08-28T01:59:20.172Z,2.30
2023-08-28T02:02:44.722Z,2.50
2023-08-28T02:06:08.464Z,2.47
2023-08-28T02:09:31.737Z,2.80
2023-08-28T02:12:54.063Z,2.63
2023-08-28T02:16:20.611Z,3.00
2023-08-28T02:19:44.320Z,2.50
2023-08-28T02:23:06.623Z,2.35
2023-08-28T02:26:29.644Z,1.80
2023-08-28T02:29:52.716Z,1.95
2023-08-28T02:33:15.643Z,2.00
2023-08-28T02:36:39.141Z,1.93
2023-08-28T02:40:04.387Z,1.87
2023-08-28T02:43:26.637Z,1.63
2023-08-28T02:46:48.925Z,2.20
2023-08-28T02:50:13.345Z,2.30
2023-08-28T02:53:36.682Z,2.40
2023-08-28T02:56:58.940Z,2.23
2023-08-28T03:00:21.487Z,2.50
2023-08-28T03:03:44.373Z,2.77
2023-08-28T03:07:07.695Z,2.27
2023-08-28T03:10:32.371Z,1.93
2023-08-28T03:13:56.019Z,2.03
2023-08-28T03:17:19.290Z,2.10
2023-08-28T03:20:42.384Z,1.77
2023-08-28T03:24:05.099Z,1.80
2023-08-28T03:27:27.405Z,2.00
2023-08-28T03:30:49.697Z,2.00
2023-08-28T03:34:12.180Z,2.13
2023-08-28T03:37:34.421Z,1.80
2023-08-28T03:40:57.426Z,2.30
2023-08-28T03:44:19.732Z,2.53
2023-08-28T03:47:42.243Z,2.20
2023-08-28T03:51:04.611Z,2.10
2023-08-28T03:54:29.007Z,2.57
2023-08-28T03:57:52.688Z,2.57
2023-08-28T04:01:15.330Z,2.17
2023-08-28T04:04:38.821Z,2.10
2023-08-28T04:08:01.267Z,2.40
2023-08-28T04:11:23.559Z,2.90
2023-08-28T04:14:45.779Z,1.57
2023-08-28T04:18:09.120Z,2.10
2023-08-28T04:21:31.639Z,2.40
2023-08-28T04:24:54.743Z,2.20
2023-08-28T04:28:17.285Z,2.07
2023-08-28T04:31:40.066Z,2.07
2023-08-28T04:35:03.331Z,2.47
2023-08-28T04:38:27.197Z,2.87
2023-08-28T04:41:49.685Z,2.87
2023-08-28T04:45:11.953Z,2.80
2023-08-28T04:48:34.236Z,3.27
2023-08-28T04:51:56.636Z,3.77
2023-08-28T04:55:18.861Z,3.03
2023-08-28T04:58:41.789Z,3.50
2023-08-28T05:02:04.298Z,3.40
2023-08-28T05:05:26.547Z,3.63
2023-08-28T05:08:48.881Z,3.20
2023-08-28T05:12:11.196Z,3.53
2023-08-28T05:15:33.523Z,3.97
2023-08-28T05:18:55.789Z,4.00
2023-08-28T05:22:18.034Z,3.97
2023-08-28T05:25:40.429Z,4.18
2023-08-28T05:29:03.019Z,4.10
2023-08-28T05:32:25.369Z,3.50
2023-08-28T05:35:47.701Z,4.45
2023-08-28T05:39:10.075Z,4.40
2023-08-28T05:42:32.566Z,4.45
2023-08-28T05:45:54.835Z,4.30
2023-08-28T05:49:17.120Z,4.35
2023-08-28T05:52:39.460Z,4.10
2023-08-28T05:56:01.798Z,4.30
2023-08-28T05:59:24.125Z,4.07
2023-08-28T06:02:46.507Z,4.38
2023-08-28T06:06:08.854Z,3.88
2023-08-28T06:09:32.540Z,4.00
2023-08-28T06:12:54.898Z,4.18
2023-08-28T06:16:18.218Z,4.55
2023-08-28T06:19:40.505Z,4.13
2023-08-28T06:23:03.044Z,4.65
2023-08-28T06:26:25.524Z,4.85
2023-08-28T06:29:50.382Z,5.00
2023-08-28T06:33:12.804Z,5.53
2023-08-28T06:36:35.082Z,5.47
2023-08-28T06:39:57.434Z,4.75
2023-08-28T06:43:20.042Z,4.97
2023-08-28T06:46:42.391Z,4.90
2023-08-28T06:50:04.945Z,4.47
2023-08-28T06:53:27.240Z,4.10
2023-08-28T06:56:49.539Z,5.22
2023-08-28T07:00:12.471Z,3.75
2023-08-28T07:03:34.800Z,3.38
2023-08-28T07:06:57.230Z,3.53
2023-08-28T07:10:19.490Z,3.45
2023-08-28T07:13:41.954Z,2.90
2023-08-28T07:17:04.378Z,3.33
2023-08-28T07:20:26.761Z,2.88
2023-08-28T07:23:51.750Z,2.85
2023-08-28T07:27:14.013Z,2.72
2023-08-28T07:30:36.813Z,2.63
2023-08-28T07:34:00.370Z,2.80
2023-08-28T07:37:22.645Z,2.90
2023-08-28T07:40:47.156Z,2.67
2023-08-28T07:44:10.620Z,2.35
2023-08-28T07:47:32.912Z,2.63
2023-08-28T07:50:56.295Z,2.15
2023-08-28T07:54:18.847Z,2.10
2023-08-28T07:57:41.163Z,2.53
2023-08-28T08:01:03.432Z,2.13
2023-08-28T08:04:27.276Z,2.00
2023-08-28T08:07:50.172Z,1.60
2023-08-28T08:11:13.713Z,1.70
2023-08-28T08:14:36.121Z,1.67
2023-08-28T08:17:58.567Z,1.50
2023-08-28T08:21:21.195Z,1.73
2023-08-28T08:24:43.637Z,1.55
2023-08-28T08:28:06.069Z,1.65
2023-08-28T08:31:28.430Z,1.48
2023-08-28T08:34:52.012Z,1.23
2023-08-28T08:38:14.306Z,1.60
2023-08-28T08:41:37.519Z,1.27
2023-08-28T08:44:59.839Z,1.65
2023-08-28T08:48:25.860Z,1.45
2023-08-28T08:51:52.230Z,1.58
2023-08-28T08:55:48.572Z,1.17
2023-08-28T08:59:11.582Z,1.10
2023-08-28T09:02:34.628Z,1.20
2023-08-28T09:05:58.778Z,1.10
2023-08-28T09:09:21.266Z,1.63
2023-08-28T09:12:44.683Z,0.90
2023-08-28T09:16:07.171Z,1.33
2023-08-28T09:19:31.426Z,1.02
2023-08-28T09:22:56.120Z,1.00
2023-08-28T09:26:21.151Z,0.82
2023-08-28T09:29:43.521Z,0.90
2023-08-28T09:33:07.720Z,0.93
2023-08-28T09:36:33.745Z,0.80
2023-08-28T09:39:58.523Z,1.13
2023-08-28T09:43:20.861Z,0.80
2023-08-28T09:46:45.024Z,0.60
2023-08-28T09:50:08.348Z,0.85
2023-08-28T09:53:32.217Z,0.65
2023-08-28T09:56:54.624Z,0.50
2023-08-28T10:00:17.209Z,0.60
2023-08-28T10:03:39.673Z,0.70
2023-08-28T10:07:04.276Z,1.02
2023-08-28T10:10:27.199Z,0.73
2023-08-28T10:13:50.148Z,0.70
2023-08-28T10:17:15.967Z,0.80
2023-08-28T10:20:40.352Z,0.70
2023-08-28T10:24:03.571Z,0.52
2023-08-28T10:27:26.903Z,1.05
2023-08-28T10:30:52.966Z,0.65
2023-08-28T10:34:16.587Z,0.60
2023-08-28T10:37:40.424Z,0.90
2023-08-28T10:41:04.780Z,0.55
2023-08-28T10:44:28.600Z,0.60
2023-08-28T10:47:52.428Z,1.00
2023-08-28T10:51:15.222Z,0.60
2023-08-28T10:54:44.973Z,0.82
2023-08-28T10:58:07.290Z,0.50
2023-08-28T11:01:51.506Z,0.70
2023-08-28T11:05:17.272Z,1.30
2023-08-28T11:08:40.621Z,0.60
2023-08-28T11:12:02.928Z,0.63
2023-08-28T11:15:30.948Z,0.70
2023-08-28T11:18:58.528Z,0.70
2023-08-28T11:22:46.663Z,0.63
2023-08-28T11:26:28.040Z,0.68
2023-08-28T11:29:50.439Z,0.65
2023-08-28T11:33:12.816Z,0.65
2023-08-28T11:36:40.747Z,0.47
2023-08-28T11:40:09.330Z,0.52
2023-08-28T11:43:36.000Z,0.40
2023-08-28T11:46:58.258Z,0.75
2023-08-28T11:50:20.642Z,0.55
2023-08-28T11:53:44.645Z,0.60
2023-08-28T11:57:08.545Z,0.52
2023-08-28T12:00:47.416Z,0.80
2023-08-28T12:04:24.203Z,0.50
2023-08-28T12:07:53.903Z,0.47
2023-08-28T12:11:21.195Z,0.50
2023-08-28T12:18:24.340Z,0.60
2023-08-28T12:21:49.801Z,0.55
2023-08-28T12:25:18.429Z,0.40
2023-08-28T12:28:42.245Z,0.50
2023-08-28T12:32:08.477Z,0.50
2023-08-28T12:35:38.464Z,0.60
2023-08-28T12:39:01.490Z,0.55
2023-08-28T12:42:23.827Z,0.50
2023-08-28T12:45:46.082Z,0.40
2023-08-28T12:49:08.699Z,0.63
2023-08-28T12:52:31.331Z,0.40
2023-08-28T12:55:53.761Z,0.50
2023-08-28T12:59:17.598Z,0.50
2023-08-28T13:02:40.016Z,0.90
2023-08-28T13:06:05.927Z,0.50
2023-08-28T13:09:28.907Z,0.40
2023-08-28T13:12:54.656Z,0.50
2023-08-28T13:16:31.517Z,0.52
2023-08-28T13:19:54.748Z,0.47
2023-08-28T13:23:19.966Z,0.50
2023-08-28T13:26:42.302Z,1.40
2023-08-28T13:30:08.509Z,1.40
2023-08-28T13:33:30.948Z,0.63
2023-08-28T13:36:54.326Z,0.30
2023-08-28T13:40:17.419Z,0.50
2023-08-28T13:43:40.197Z,0.50
2023-08-28T13:47:02.496Z,0.45
2023-08-28T13:50:25.247Z,0.50
2023-08-28T13:53:47.858Z,0.50
2023-08-28T13:57:11.179Z,0.35
2023-08-28T14:00:34.528Z,0.50
2023-08-28T14:03:57.748Z,0.20
2023-08-28T14:07:24.328Z,0.50
2023-08-28T14:10:50.178Z,0.60
2023-08-28T14:14:15.340Z,0.77
2023-08-28T14:17:53.370Z,0.30
2023-08-28T14:21:57.463Z,0.50
2023-08-28T14:30:13.255Z,0.50
2023-08-28T14:45:57.390Z,0.50
2023-08-28T14:49:35.946Z,1.00
2023-08-28T14:53:09.653Z,1.20
2023-08-28T14:57:12.301Z,0.77
2023-08-28T15:09:39.582Z,0.47
2023-08-28T15:13:27.923Z,0.80
2023-08-28T15:17:20.226Z,0.52
2023-08-28T15:21:16.337Z,0.40
2023-08-28T15:25:02.999Z,0.70
2023-08-28T15:28:39.132Z,0.55
2023-08-28T15:32:24.406Z,0.77
2023-08-28T15:43:58.619Z,0.40
2023-08-28T15:47:55.745Z,0.50
2023-08-28T15:51:18.094Z,0.45
2023-08-28T15:55:06.187Z,0.60
2023-08-28T15:58:31.262Z,0.85
2023-08-28T16:02:03.823Z,0.80
2023-08-28T16:05:29.482Z,0.60
2023-08-28T16:08:52.967Z,0.57
2023-08-28T16:12:15.315Z,0.60
2023-08-28T16:15:39.568Z,0.47
2023-08-28T16:19:03.400Z,0.60
2023-08-28T16:22:25.714Z,0.63
2023-08-28T16:25:49.615Z,0.85
2023-08-28T16:29:11.863Z,0.57
2023-08-28T16:32:34.290Z,0.60
2023-08-28T16:35:56.834Z,0.70
2023-08-28T16:39:19.090Z,0.73
2023-08-28T16:42:41.593Z,0.65
2023-08-28T16:46:03.930Z,0.63
2023-08-28T16:49:26.420Z,0.68
2023-08-28T16:52:48.770Z,0.60
2023-08-28T16:56:11.078Z,0.50
2023-08-28T16:59:33.383Z,0.68
2023-08-28T17:02:57.213Z,0.65
2023-08-28T17:06:19.538Z,0.90
2023-08-28T17:09:41.830Z,0.70
2023-08-28T17:13:04.406Z,0.80
2023-08-28T17:16:27.100Z,1.10
2023-08-28T17:19:49.434Z,0.90
2023-08-28T17:23:11.724Z,1.05
2023-08-28T17:26:34.028Z,2.78
2023-08-28T17:29:57.083Z,1.20
2023-08-28T17:33:19.328Z,1.20
2023-08-28T17:36:41.684Z,1.05
2023-08-28T17:40:06.555Z,1.25
2023-08-28T17:43:29.783Z,1.00
2023-08-28T17:46:52.722Z,0.80
2023-08-28T17:50:15.296Z,0.98
2023-08-28T17:53:38.017Z,1.00
2023-08-28T17:57:00.281Z,0.90
2023-08-28T18:00:22.640Z,0.90
2023-08-28T18:03:45.381Z,1.20
2023-08-28T18:07:08.299Z,1.30
2023-08-28T18:10:31.866Z,1.02
2023-08-28T18:13:54.232Z,1.20
2023-08-28T18:17:17.257Z,0.88
2023-08-28T18:20:45.376Z,0.85
2023-08-28T18:24:08.175Z,1.05
2023-08-28T18:27:30.451Z,1.30
2023-08-28T18:30:52.691Z,0.90
2023-08-28T18:34:17.907Z,0.90
2023-08-28T18:37:40.228Z,1.33
2023-08-28T18:41:02.555Z,1.15
2023-08-28T18:44:24.922Z,1.15
2023-08-28T18:47:48.261Z,1.40
2023-08-28T18:51:10.531Z,1.33
2023-08-28T18:54:33.084Z,1.17
2023-08-28T18:57:55.311Z,1.17
2023-08-28T19:01:17.625Z,1.17
2023-08-28T19:04:43.163Z,1.40
2023-08-28T19:08:05.972Z,1.23
2023-08-28T19:11:28.368Z,1.42
2023-08-28T19:14:50.687Z,1.30
2023-08-28T19:18:12.990Z,1.42
2023-08-28T19:21:35.244Z,1.38
2023-08-28T19:24:58.906Z,1.40
2023-08-28T19:28:21.426Z,1.80
2023-08-28T19:31:45.124Z,1.42
2023-08-28T19:35:14.780Z,1.50
2023-08-28T19:38:37.307Z,2.00
2023-08-28T19:42:00.211Z,1.67
2023-08-28T19:45:25.219Z,1.70
2023-08-28T19:48:50.930Z,1.90
2023-08-28T19:52:20.813Z,1.90
2023-08-28T19:55:43.396Z,1.70
2023-08-28T19:59:06.691Z,2.10
2023-08-28T20:02:32.428Z,2.20
2023-08-28T20:06:08.053Z,1.67
2023-08-28T20:09:31.758Z,2.20
2023-08-28T20:12:55.127Z,2.00
2023-08-28T20:16:17.750Z,2.08
2023-08-28T20:19:40.310Z,2.78
2023-08-28T20:23:02.914Z,2.25
2023-08-28T20:26:29.511Z,1.83
2023-08-28T20:29:52.079Z,2.25
2023-08-28T20:33:15.538Z,2.15
2023-08-28T20:36:40.570Z,2.30
2023-08-28T20:40:04.253Z,2.10
2023-08-28T20:43:27.422Z,2.00
2023-08-28T20:46:50.694Z,2.05
2023-08-28T20:50:13.212Z,2.00
2023-08-28T20:53:35.572Z,2.20
2023-08-28T20:56:57.980Z,2.22
2023-08-28T21:00:20.421Z,2.20
2023-08-28T21:03:43.413Z,2.28
2023-08-28T21:07:05.989Z,2.38
2023-08-28T21:10:28.248Z,2.90
2023-08-28T21:13:50.502Z,3.13
2023-08-28T21:17:12.738Z,2.30
2023-08-28T21:20:34.994Z,2.47
2023-08-28T21:23:57.314Z,2.50
2023-08-28T21:27:19.616Z,3.05
2023-08-28T21:30:51.738Z,2.78
2023-08-28T21:34:18.958Z,2.53
2023-08-28T21:37:41.581Z,3.03
2023-08-28T21:41:06.734Z,2.50
2023-08-28T21:44:32.169Z,2.63
2023-08-28T21:48:04.032Z,2.95
2023-08-28T21:51:45.085Z,3.25
2023-08-28T21:55:32.460Z,2.95
2023-08-28T21:59:13.708Z,3.28
2023-08-28T22:02:54.682Z,3.35
2023-08-28T22:06:35.930Z,3.60
2023-08-28T22:09:58.484Z,3.47
2023-08-28T22:13:27.681Z,3.50
2023-08-28T22:16:50.680Z,3.78
2023-08-28T22:20:15.114Z,3.75
2023-08-28T22:23:41.230Z,3.55
2023-08-28T22:27:03.824Z,3.88
2023-08-28T22:30:26.109Z,3.30
2023-08-28T22:33:48.434Z,3.55
2023-08-28T22:37:10.681Z,3.53
2023-08-28T22:40:32.921Z,3.55
2023-08-28T22:43:58.124Z,4.13
2023-08-28T22:47:20.617Z,3.72
2023-08-28T22:50:42.933Z,3.97
2023-08-28T22:54:07.913Z,4.07
2023-08-28T22:57:35.294Z,4.75
2023-08-28T23:01:01.172Z,4.03
2023-08-28T23:04:23.592Z,4.03
2023-08-28T23:07:53.348Z,4.47
2023-08-28T23:11:22.205Z,3.88
2023-08-28T23:14:44.551Z,3.72
2023-08-28T23:18:14.247Z,3.88
2023-08-28T23:21:42.129Z,3.78
2023-08-28T23:25:07.543Z,3.90
2023-08-28T23:28:32.197Z,3.85
2023-08-28T23:31:55.702Z,4.55
2023-08-28T23:35:19.100Z,4.88
2023-08-28T23:38:41.482Z,4.63
2023-08-28T23:42:04.124Z,5.03
2023-08-28T23:45:26.417Z,4.72
2023-08-28T23:48:51.736Z,5.22
2023-08-28T23:52:14.156Z,5.60
2023-08-28T23:55:36.537Z,5.75
2023-08-28T23:59:03.095Z,5.35
